sensor_id;sensor_type;location;lat;lon;timestamp;P1;durP1;ratioP1;P2;durP2;ratioP2
317;SDS011;146;53.448;10.228;2024-03-02T00:01:40;30.37;;;25.83;;
317;SDS011;146;53.448;10.228;2024-03-02T00:04:36;31.50;;;25.70;;
317;SDS011;146;53.448;10.228;2024-03-02T00:07:28;31.73;;;25.67;;
317;SDS011;146;53.448;10.228;2024-03-02T00:10:21;32.47;;;25.60;;
317;SDS011;146;53.448;10.228;2024-03-02T00:13:29;30.87;;;27.60;;
317;SDS011;146;53.448;10.228;2024-03-02T00:16:20;31.23;;;26.10;;
317;SDS011;146;53.448;10.228;2024-03-02T00:19:09;33.60;;;27.90;;
317;SDS011;146;53.448;10.228;2024-03-02T00:22:00;34.73;;;28.30;;
317;SDS011;146;53.448;10.228;2024-03-02T00:27:56;30.10;;;27.13;;
317;SDS011;146;53.448;10.228;2024-03-02T00:33:52;31.50;;;28.07;;
317;SDS011;146;53.448;10.228;2024-03-02T00:36:45;36.97;;;29.20;;
317;SDS011;146;53.448;10.228;2024-03-02T00:39:32;36.00;;;28.37;;
317;SDS011;146;53.448;10.228;2024-03-02T00:42:20;33.50;;;29.87;;
317;SDS011;146;53.448;10.228;2024-03-02T00:45:10;36.33;;;28.40;;
317;SDS011;146;53.448;10.228;2024-03-02T00:47:58;35.90;;;28.67;;
317;SDS011;146;53.448;10.228;2024-03-02T00:50:49;38.20;;;29.43;;
317;SDS011;146;53.448;10.228;2024-03-02T00:53:38;38.30;;;32.13;;
317;SDS011;146;53.448;10.228;2024-03-02T00:56:31;35.27;;;30.70;;
317;SDS011;146;53.448;10.228;2024-03-02T00:59:24;38.50;;;29.27;;
317;SDS011;146;53.448;10.228;2024-03-02T01:02:11;33.70;;;29.17;;
317;SDS011;146;53.448;10.228;2024-03-02T01:05:04;32.70;;;28.50;;
317;SDS011;146;53.448;10.228;2024-03-02T01:07:51;31.80;;;28.33;;
317;SDS011;146;53.448;10.228;2024-03-02T01:10:38;34.27;;;28.80;;
317;SDS011;146;53.448;10.228;2024-03-02T01:13:25;33.17;;;28.80;;
317;SDS011;146;53.448;10.228;2024-03-02T01:16:23;35.40;;;28.60;;
317;SDS011;146;53.448;10.228;2024-03-02T01:19:13;36.27;;;29.73;;
317;SDS011;146;53.448;10.228;2024-03-02T01:22:00;31.80;;;28.30;;
317;SDS011;146;53.448;10.228;2024-03-02T01:24:47;35.23;;;30.63;;
317;SDS011;146;53.448;10.228;2024-03-02T01:27:35;34.93;;;30.57;;
317;SDS011;146;53.448;10.228;2024-03-02T01:30:37;35.10;;;28.80;;
317;SDS011;146;53.448;10.228;2024-03-02T01:33:25;41.73;;;33.37;;
317;SDS011;146;53.448;10.228;2024-03-02T01:36:18;37.90;;;31.93;;
317;SDS011;146;53.448;10.228;2024-03-02T01:39:06;38.30;;;31.40;;
317;SDS011;146;53.448;10.228;2024-03-02T01:42:00;37.30;;;30.60;;
317;SDS011;146;53.448;10.228;2024-03-02T01:44:51;37.90;;;31.63;;
317;SDS011;146;53.448;10.228;2024-03-02T01:47:44;35.60;;;31.80;;
317;SDS011;146;53.448;10.228;2024-03-02T01:50:36;38.37;;;30.47;;
317;SDS011;146;53.448;10.228;2024-03-02T01:53:24;38.47;;;31.60;;
317;SDS011;146;53.448;10.228;2024-03-02T01:56:14;34.70;;;29.30;;
317;SDS011;146;53.448;10.228;2024-03-02T01:59:01;34.73;;;30.47;;
317;SDS011;146;53.448;10.228;2024-03-02T02:01:51;39.07;;;31.57;;
317;SDS011;146;53.448;10.228;2024-03-02T02:04:41;35.77;;;31.00;;
317;SDS011;146;53.448;10.228;2024-03-02T02:07:32;32.03;;;27.03;;
317;SDS011;146;53.448;10.228;2024-03-02T02:10:26;33.67;;;30.17;;
317;SDS011;146;53.448;10.228;2024-03-02T02:13:19;31.17;;;27.77;;
317;SDS011;146;53.448;10.228;2024-03-02T02:16:22;37.40;;;29.10;;
317;SDS011;146;53.448;10.228;2024-03-02T02:19:12;35.83;;;29.00;;
317;SDS011;146;53.448;10.228;2024-03-02T02:22:09;33.07;;;29.43;;
317;SDS011;146;53.448;10.228;2024-03-02T02:24:59;36.07;;;28.70;;
317;SDS011;146;53.448;10.228;2024-03-02T02:27:49;34.27;;;29.27;;
317;SDS011;146;53.448;10.228;2024-03-02T02:30:46;34.97;;;30.07;;
317;SDS011;146;53.448;10.228;2024-03-02T02:33:47;34.53;;;29.37;;
317;SDS011;146;53.448;10.228;2024-03-02T02:36:34;36.13;;;29.80;;
317;SDS011;146;53.448;10.228;2024-03-02T02:39:37;35.80;;;30.43;;
317;SDS011;146;53.448;10.228;2024-03-02T02:42:26;33.20;;;29.10;;
317;SDS011;146;53.448;10.228;2024-03-02T02:45:13;36.20;;;30.57;;
317;SDS011;146;53.448;10.228;2024-03-02T02:48:09;36.80;;;29.53;;
317;SDS011;146;53.448;10.228;2024-03-02T02:51:16;35.60;;;30.23;;
317;SDS011;146;53.448;10.228;2024-03-02T02:54:06;43.37;;;31.17;;
317;SDS011;146;53.448;10.228;2024-03-02T03:00:07;39.43;;;32.07;;
317;SDS011;146;53.448;10.228;2024-03-02T03:03:02;45.13;;;32.73;;
317;SDS011;146;53.448;10.228;2024-03-02T03:06:03;35.83;;;29.17;;
317;SDS011;146;53.448;10.228;2024-03-02T03:08:54;37.43;;;31.40;;
317;SDS011;146;53.448;10.228;2024-03-02T03:11:46;39.97;;;30.97;;
317;SDS011;146;53.448;10.228;2024-03-02T03:15:03;38.00;;;32.70;;
317;SDS011;146;53.448;10.228;2024-03-02T03:17:58;40.93;;;30.73;;
317;SDS011;146;53.448;10.228;2024-03-02T03:20:45;40.83;;;33.37;;
317;SDS011;146;53.448;10.228;2024-03-02T03:23:32;37.03;;;30.60;;
317;SDS011;146;53.448;10.228;2024-03-02T03:26:31;40.27;;;32.20;;
317;SDS011;146;53.448;10.228;2024-03-02T03:29:21;38.63;;;31.93;;
317;SDS011;146;53.448;10.228;2024-03-02T03:32:13;36.93;;;31.50;;
317;SDS011;146;53.448;10.228;2024-03-02T03:35:03;39.47;;;30.70;;
317;SDS011;146;53.448;10.228;2024-03-02T03:37:51;40.90;;;32.63;;
317;SDS011;146;53.448;10.228;2024-03-02T03:40:38;36.20;;;30.30;;
317;SDS011;146;53.448;10.228;2024-03-02T03:43:25;36.90;;;29.40;;
317;SDS011;146;53.448;10.228;2024-03-02T03:46:12;35.97;;;31.53;;
317;SDS011;146;53.448;10.228;2024-03-02T03:49:03;35.07;;;31.13;;
317;SDS011;146;53.448;10.228;2024-03-02T03:52:04;33.17;;;29.40;;
317;SDS011;146;53.448;10.228;2024-03-02T03:54:54;36.40;;;29.43;;
317;SDS011;146;53.448;10.228;2024-03-02T03:57:44;36.20;;;31.50;;
317;SDS011;146;53.448;10.228;2024-03-02T04:00:44;34.73;;;30.93;;
317;SDS011;146;53.448;10.228;2024-03-02T04:03:38;36.20;;;30.57;;
317;SDS011;146;53.448;10.228;2024-03-02T04:06:29;35.17;;;29.40;;
317;SDS011;146;53.448;10.228;2024-03-02T04:09:19;37.50;;;31.67;;
317;SDS011;146;53.448;10.228;2024-03-02T04:12:06;36.00;;;30.60;;
317;SDS011;146;53.448;10.228;2024-03-02T04:14:59;35.73;;;30.97;;
317;SDS011;146;53.448;10.228;2024-03-02T04:17:52;37.30;;;31.53;;
317;SDS011;146;53.448;10.228;2024-03-02T04:20:56;33.50;;;28.40;;
317;SDS011;146;53.448;10.228;2024-03-02T04:23:46;35.70;;;31.00;;
317;SDS011;146;53.448;10.228;2024-03-02T04:26:33;37.00;;;30.67;;
317;SDS011;146;53.448;10.228;2024-03-02T04:29:20;39.93;;;32.37;;
317;SDS011;146;53.448;10.228;2024-03-02T04:32:07;38.53;;;31.60;;
317;SDS011;146;53.448;10.228;2024-03-02T04:34:54;35.50;;;30.20;;
317;SDS011;146;53.448;10.228;2024-03-02T04:37:47;36.40;;;30.97;;
317;SDS011;146;53.448;10.228;2024-03-02T04:40:38;34.27;;;28.53;;
317;SDS011;146;53.448;10.228;2024-03-02T04:43:25;34.90;;;29.40;;
317;SDS011;146;53.448;10.228;2024-03-02T04:46:17;33.27;;;28.97;;
317;SDS011;146;53.448;10.228;2024-03-02T04:49:10;35.53;;;30.27;;
317;SDS011;146;53.448;10.228;2024-03-02T04:52:09;34.50;;;30.03;;
317;SDS011;146;53.448;10.228;2024-03-02T04:54:59;34.00;;;28.40;;
317;SDS011;146;53.448;10.228;2024-03-02T04:58:12;36.80;;;29.50;;
317;SDS011;146;53.448;10.228;2024-03-02T05:01:02;33.97;;;29.27;;
317;SDS011;146;53.448;10.228;2024-03-02T05:03:49;34.97;;;28.87;;
317;SDS011;146;53.448;10.228;2024-03-02T05:06:42;33.53;;;28.23;;
317;SDS011;146;53.448;10.228;2024-03-02T05:09:32;34.57;;;29.90;;
317;SDS011;146;53.448;10.228;2024-03-02T05:12:20;33.23;;;29.80;;
317;SDS011;146;53.448;10.228;2024-03-02T05:15:34;34.60;;;30.63;;
317;SDS011;146;53.448;10.228;2024-03-02T05:18:21;33.17;;;29.27;;
317;SDS011;146;53.448;10.228;2024-03-02T05:21:12;36.00;;;30.20;;
317;SDS011;146;53.448;10.228;2024-03-02T05:24:01;33.53;;;29.93;;
317;SDS011;146;53.448;10.228;2024-03-02T05:26:57;37.03;;;32.03;;
317;SDS011;146;53.448;10.228;2024-03-02T05:29:48;37.73;;;31.90;;
317;SDS011;146;53.448;10.228;2024-03-02T05:32:36;35.87;;;31.27;;
317;SDS011;146;53.448;10.228;2024-03-02T05:35:23;37.50;;;31.97;;
317;SDS011;146;53.448;10.228;2024-03-02T05:38:13;37.50;;;31.70;;
317;SDS011;146;53.448;10.228;2024-03-02T05:41:00;36.27;;;28.87;;
317;SDS011;146;53.448;10.228;2024-03-02T05:43:50;37.20;;;31.17;;
317;SDS011;146;53.448;10.228;2024-03-02T05:46:37;34.07;;;30.20;;
317;SDS011;146;53.448;10.228;2024-03-02T05:49:28;34.80;;;30.47;;
317;SDS011;146;53.448;10.228;2024-03-02T05:52:15;37.17;;;31.83;;
317;SDS011;146;53.448;10.228;2024-03-02T05:55:02;36.50;;;30.50;;
317;SDS011;146;53.448;10.228;2024-03-02T05:57:52;38.33;;;30.13;;
317;SDS011;146;53.448;10.228;2024-03-02T06:00:59;35.23;;;30.63;;
317;SDS011;146;53.448;10.228;2024-03-02T06:03:49;35.60;;;31.80;;
317;SDS011;146;53.448;10.228;2024-03-02T06:06:51;37.23;;;29.23;;
317;SDS011;146;53.448;10.228;2024-03-02T06:09:40;34.00;;;29.73;;
317;SDS011;146;53.448;10.228;2024-03-02T06:12:27;37.00;;;29.90;;
317;SDS011;146;53.448;10.228;2024-03-02T06:15:14;35.07;;;29.63;;
317;SDS011;146;53.448;10.228;2024-03-02T06:18:02;42.30;;;32.90;;
317;SDS011;146;53.448;10.228;2024-03-02T06:20:52;38.53;;;31.30;;
317;SDS011;146;53.448;10.228;2024-03-02T06:23:46;36.30;;;30.13;;
317;SDS011;146;53.448;10.228;2024-03-02T06:26:33;34.83;;;29.23;;
317;SDS011;146;53.448;10.228;2024-03-02T06:29:33;34.93;;;29.30;;
317;SDS011;146;53.448;10.228;2024-03-02T06:32:20;39.57;;;30.17;;
317;SDS011;146;53.448;10.228;2024-03-02T06:35:08;34.73;;;30.67;;
317;SDS011;146;53.448;10.228;2024-03-02T06:37:55;35.13;;;30.73;;
317;SDS011;146;53.448;10.228;2024-03-02T06:40:46;33.60;;;30.00;;
317;SDS011;146;53.448;10.228;2024-03-02T06:43:33;34.60;;;30.83;;
317;SDS011;146;53.448;10.228;2024-03-02T06:46:20;36.53;;;30.50;;
317;SDS011;146;53.448;10.228;2024-03-02T06:49:07;34.00;;;30.10;;
317;SDS011;146;53.448;10.228;2024-03-02T06:52:04;34.47;;;30.67;;
317;SDS011;146;53.448;10.228;2024-03-02T06:54:55;33.27;;;29.53;;
317;SDS011;146;53.448;10.228;2024-03-02T06:57:43;35.97;;;31.73;;
317;SDS011;146;53.448;10.228;2024-03-02T07:00:30;35.63;;;30.17;;
317;SDS011;146;53.448;10.228;2024-03-02T07:03:17;34.43;;;30.63;;
317;SDS011;146;53.448;10.228;2024-03-02T07:06:04;36.40;;;31.60;;
317;SDS011;146;53.448;10.228;2024-03-02T07:08:51;38.70;;;32.70;;
317;SDS011;146;53.448;10.228;2024-03-02T07:11:41;37.60;;;31.43;;
317;SDS011;146;53.448;10.228;2024-03-02T07:14:32;37.33;;;31.63;;
317;SDS011;146;53.448;10.228;2024-03-02T07:17:36;38.33;;;32.93;;
317;SDS011;146;53.448;10.228;2024-03-02T07:20:29;35.77;;;31.87;;
317;SDS011;146;53.448;10.228;2024-03-02T07:23:16;42.53;;;34.83;;
317;SDS011;146;53.448;10.228;2024-03-02T07:26:03;37.87;;;32.20;;
317;SDS011;146;53.448;10.228;2024-03-02T07:28:51;35.57;;;30.70;;
317;SDS011;146;53.448;10.228;2024-03-02T07:31:40;41.50;;;32.07;;
317;SDS011;146;53.448;10.228;2024-03-02T07:34:30;39.57;;;33.00;;
317;SDS011;146;53.448;10.228;2024-03-02T07:37:17;39.30;;;32.90;;
317;SDS011;146;53.448;10.228;2024-03-02T07:40:10;36.97;;;32.73;;
317;SDS011;146;53.448;10.228;2024-03-02T07:43:01;36.93;;;29.77;;
317;SDS011;146;53.448;10.228;2024-03-02T07:45:57;40.80;;;31.30;;
317;SDS011;146;53.448;10.228;2024-03-02T07:48:49;35.17;;;31.37;;
317;SDS011;146;53.448;10.228;2024-03-02T07:51:37;36.07;;;29.53;;
317;SDS011;146;53.448;10.228;2024-03-02T07:54:24;35.70;;;30.37;;
317;SDS011;146;53.448;10.228;2024-03-02T08:04:35;33.43;;;29.83;;
317;SDS011;146;53.448;10.228;2024-03-02T08:07:22;36.30;;;31.77;;
317;SDS011;146;53.448;10.228;2024-03-02T08:10:09;35.33;;;31.23;;
317;SDS011;146;53.448;10.228;2024-03-02T08:12:56;37.63;;;31.63;;
317;SDS011;146;53.448;10.228;2024-03-02T08:15:43;34.80;;;30.70;;
317;SDS011;146;53.448;10.228;2024-03-02T08:18:34;36.80;;;31.23;;
317;SDS011;146;53.448;10.228;2024-03-02T08:21:25;35.50;;;31.00;;
317;SDS011;146;53.448;10.228;2024-03-02T08:24:21;31.43;;;28.10;;
317;SDS011;146;53.448;10.228;2024-03-02T08:27:09;32.47;;;28.83;;
317;SDS011;146;53.448;10.228;2024-03-02T08:29:56;29.63;;;26.53;;
317;SDS011;146;53.448;10.228;2024-03-02T08:36:35;31.03;;;27.67;;
317;SDS011;146;53.448;10.228;2024-03-02T08:45:40;30.63;;;26.17;;
317;SDS011;146;53.448;10.228;2024-03-02T08:48:27;31.10;;;27.80;;
317;SDS011;146;53.448;10.228;2024-03-02T08:51:14;30.60;;;27.40;;
317;SDS011;146;53.448;10.228;2024-03-02T08:54:03;31.33;;;27.93;;
317;SDS011;146;53.448;10.228;2024-03-02T08:56:50;28.77;;;25.67;;
317;SDS011;146;53.448;10.228;2024-03-02T08:59:37;30.53;;;27.23;;
317;SDS011;146;53.448;10.228;2024-03-02T09:02:27;29.10;;;26.00;;
317;SDS011;146;53.448;10.228;2024-03-02T09:05:15;30.00;;;25.13;;
317;SDS011;146;53.448;10.228;2024-03-02T09:08:02;29.07;;;26.10;;
317;SDS011;146;53.448;10.228;2024-03-02T09:10:51;25.80;;;23.20;;
317;SDS011;146;53.448;10.228;2024-03-02T09:13:38;26.47;;;23.60;;
317;SDS011;146;53.448;10.228;2024-03-02T09:16:25;25.47;;;22.97;;
317;SDS011;146;53.448;10.228;2024-03-02T09:19:19;27.43;;;24.63;;
317;SDS011;146;53.448;10.228;2024-03-02T09:22:09;25.30;;;22.80;;
317;SDS011;146;53.448;10.228;2024-03-02T09:25:02;24.77;;;22.07;;
317;SDS011;146;53.448;10.228;2024-03-02T09:27:51;23.20;;;20.80;;
317;SDS011;146;53.448;10.228;2024-03-02T09:30:41;25.20;;;22.70;;
317;SDS011;146;53.448;10.228;2024-03-02T09:33:28;22.33;;;19.97;;
317;SDS011;146;53.448;10.228;2024-03-02T09:42:33;21.40;;;19.30;;
317;SDS011;146;53.448;10.228;2024-03-02T09:45:24;21.80;;;19.60;;
317;SDS011;146;53.448;10.228;2024-03-02T09:48:12;21.93;;;19.73;;
317;SDS011;146;53.448;10.228;2024-03-02T09:50:59;22.20;;;19.90;;
317;SDS011;146;53.448;10.228;2024-03-02T09:53:51;21.20;;;19.10;;
317;SDS011;146;53.448;10.228;2024-03-02T09:56:40;21.13;;;18.13;;
317;SDS011;146;53.448;10.228;2024-03-02T09:59:27;20.23;;;18.17;;
317;SDS011;146;53.448;10.228;2024-03-02T10:06:07;19.00;;;17.10;;
317;SDS011;146;53.448;10.228;2024-03-02T10:09:05;19.00;;;17.23;;
317;SDS011;146;53.448;10.228;2024-03-02T10:11:52;17.93;;;16.33;;
317;SDS011;146;53.448;10.228;2024-03-02T10:21:20;17.87;;;16.03;;
317;SDS011;146;53.448;10.228;2024-03-02T10:24:10;14.90;;;13.30;;
317;SDS011;146;53.448;10.228;2024-03-02T10:30:43;16.60;;;15.10;;
317;SDS011;146;53.448;10.228;2024-03-02T10:37:30;17.50;;;15.80;;
317;SDS011;146;53.448;10.228;2024-03-02T10:40:21;17.67;;;15.00;;
317;SDS011;146;53.448;10.228;2024-03-02T10:43:08;16.83;;;15.10;;
317;SDS011;146;53.448;10.228;2024-03-02T10:45:58;16.43;;;14.83;;
317;SDS011;146;53.448;10.228;2024-03-02T10:48:45;16.67;;;15.07;;
317;SDS011;146;53.448;10.228;2024-03-02T10:51:34;14.07;;;12.77;;
317;SDS011;146;53.448;10.228;2024-03-02T10:54:24;14.50;;;13.10;;
317;SDS011;146;53.448;10.228;2024-03-02T10:57:14;15.60;;;14.00;;
317;SDS011;146;53.448;10.228;2024-03-02T11:00:08;13.40;;;12.20;;
317;SDS011;146;53.448;10.228;2024-03-02T11:12:23;13.43;;;12.23;;
317;SDS011;146;53.448;10.228;2024-03-02T11:15:22;12.37;;;11.07;;
317;SDS011;146;53.448;10.228;2024-03-02T11:18:15;13.53;;;12.27;;
317;SDS011;146;53.448;10.228;2024-03-02T11:21:10;13.30;;;12.00;;
317;SDS011;146;53.448;10.228;2024-03-02T11:23:58;14.37;;;12.90;;
317;SDS011;146;53.448;10.228;2024-03-02T11:26:47;15.40;;;13.77;;
317;SDS011;146;53.448;10.228;2024-03-02T11:48:31;16.00;;;14.37;;
317;SDS011;146;53.448;10.228;2024-03-02T11:51:21;13.60;;;12.30;;
317;SDS011;146;53.448;10.228;2024-03-02T11:54:11;14.77;;;13.30;;
317;SDS011;146;53.448;10.228;2024-03-02T11:56:59;14.30;;;12.93;;
317;SDS011;146;53.448;10.228;2024-03-02T11:59:48;13.90;;;12.60;;
317;SDS011;146;53.448;10.228;2024-03-02T12:02:36;13.97;;;12.50;;
317;SDS011;146;53.448;10.228;2024-03-02T12:05:27;13.03;;;11.83;;
317;SDS011;146;53.448;10.228;2024-03-02T12:08:14;13.20;;;11.90;;
317;SDS011;146;53.448;10.228;2024-03-02T12:11:01;13.30;;;11.93;;
317;SDS011;146;53.448;10.228;2024-03-02T12:13:57;12.40;;;11.40;;
317;SDS011;146;53.448;10.228;2024-03-02T12:16:47;13.00;;;11.70;;
317;SDS011;146;53.448;10.228;2024-03-02T12:19:35;12.57;;;11.33;;
317;SDS011;146;53.448;10.228;2024-03-02T12:22:23;13.80;;;12.50;;
317;SDS011;146;53.448;10.228;2024-03-02T12:25:10;14.00;;;12.70;;
317;SDS011;146;53.448;10.228;2024-03-02T12:31:36;13.63;;;12.40;;
317;SDS011;146;53.448;10.228;2024-03-02T12:34:37;13.33;;;12.03;;
317;SDS011;146;53.448;10.228;2024-03-02T12:40:44;14.37;;;13.00;;
317;SDS011;146;53.448;10.228;2024-03-02T12:43:34;15.23;;;13.57;;
317;SDS011;146;53.448;10.228;2024-03-02T12:46:21;14.20;;;12.80;;
317;SDS011;146;53.448;10.228;2024-03-02T12:49:09;14.33;;;13.03;;
317;SDS011;146;53.448;10.228;2024-03-02T12:52:00;13.67;;;12.47;;
317;SDS011;146;53.448;10.228;2024-03-02T12:54:52;14.30;;;13.00;;
317;SDS011;146;53.448;10.228;2024-03-02T12:57:43;13.23;;;12.13;;
317;SDS011;146;53.448;10.228;2024-03-02T13:00:32;14.27;;;13.07;;
317;SDS011;146;53.448;10.228;2024-03-02T13:03:20;13.07;;;11.77;;
317;SDS011;146;53.448;10.228;2024-03-02T13:06:08;14.03;;;12.73;;
317;SDS011;146;53.448;10.228;2024-03-02T13:08:56;14.80;;;13.40;;
317;SDS011;146;53.448;10.228;2024-03-02T13:11:45;14.03;;;12.63;;
317;SDS011;146;53.448;10.228;2024-03-02T13:14:32;13.23;;;12.10;;
317;SDS011;146;53.448;10.228;2024-03-02T13:17:20;14.30;;;12.67;;
317;SDS011;146;53.448;10.228;2024-03-02T13:20:08;15.43;;;13.83;;
317;SDS011;146;53.448;10.228;2024-03-02T13:22:56;14.43;;;13.13;;
317;SDS011;146;53.448;10.228;2024-03-02T13:25:43;14.43;;;12.90;;
317;SDS011;146;53.448;10.228;2024-03-02T13:28:36;14.83;;;13.43;;
317;SDS011;146;53.448;10.228;2024-03-02T13:31:31;12.70;;;11.60;;
317;SDS011;146;53.448;10.228;2024-03-02T13:34:30;14.53;;;13.17;;
317;SDS011;146;53.448;10.228;2024-03-02T13:37:23;15.37;;;13.97;;
317;SDS011;146;53.448;10.228;2024-03-02T13:40:13;13.93;;;12.53;;
317;SDS011;146;53.448;10.228;2024-03-02T13:43:08;13.10;;;11.90;;
317;SDS011;146;53.448;10.228;2024-03-02T13:46:08;11.87;;;10.87;;
317;SDS011;146;53.448;10.228;2024-03-02T13:48:58;13.50;;;12.03;;
317;SDS011;146;53.448;10.228;2024-03-02T13:51:46;13.07;;;11.87;;
317;SDS011;146;53.448;10.228;2024-03-02T13:54:36;12.50;;;11.37;;
317;SDS011;146;53.448;10.228;2024-03-02T13:57:29;11.93;;;10.67;;
317;SDS011;146;53.448;10.228;2024-03-02T14:00:19;11.00;;;10.00;;
317;SDS011;146;53.448;10.228;2024-03-02T14:03:13;11.80;;;10.70;;
317;SDS011;146;53.448;10.228;2024-03-02T14:06:06;9.83;;;8.80;;
317;SDS011;146;53.448;10.228;2024-03-02T14:09:02;10.10;;;9.10;;
317;SDS011;146;53.448;10.228;2024-03-02T14:11:55;10.23;;;9.23;;
317;SDS011;146;53.448;10.228;2024-03-02T14:14:52;10.73;;;9.73;;
317;SDS011;146;53.448;10.228;2024-03-02T14:17:44;10.40;;;9.40;;
317;SDS011;146;53.448;10.228;2024-03-02T14:20:40;13.10;;;11.33;;
317;SDS011;146;53.448;10.228;2024-03-02T14:23:30;12.80;;;11.50;;
317;SDS011;146;53.448;10.228;2024-03-02T14:26:19;12.87;;;11.67;;
317;SDS011;146;53.448;10.228;2024-03-02T14:29:06;13.57;;;12.37;;
317;SDS011;146;53.448;10.228;2024-03-02T14:31:59;13.23;;;12.03;;
317;SDS011;146;53.448;10.228;2024-03-02T14:34:49;13.20;;;11.93;;
317;SDS011;146;53.448;10.228;2024-03-02T14:37:41;13.20;;;11.90;;
317;SDS011;146;53.448;10.228;2024-03-02T14:40:31;12.87;;;11.70;;
317;SDS011;146;53.448;10.228;2024-03-02T14:43:24;12.33;;;11.13;;
317;SDS011;146;53.448;10.228;2024-03-02T14:46:16;13.07;;;11.87;;
317;SDS011;146;53.448;10.228;2024-03-02T14:49:04;13.43;;;12.13;;
317;SDS011;146;53.448;10.228;2024-03-02T14:51:54;12.87;;;11.67;;
317;SDS011;146;53.448;10.228;2024-03-02T14:54:42;11.60;;;10.60;;
317;SDS011;146;53.448;10.228;2024-03-02T14:57:29;13.17;;;11.87;;
317;SDS011;146;53.448;10.228;2024-03-02T15:00:17;12.53;;;11.53;;
317;SDS011;146;53.448;10.228;2024-03-02T15:03:05;10.50;;;9.60;;
317;SDS011;146;53.448;10.228;2024-03-02T15:05:53;11.33;;;10.13;;
317;SDS011;146;53.448;10.228;2024-03-02T15:08:42;11.10;;;10.10;;
317;SDS011;146;53.448;10.228;2024-03-02T15:11:32;10.93;;;9.93;;
317;SDS011;146;53.448;10.228;2024-03-02T15:14:19;10.07;;;9.20;;
317;SDS011;146;53.448;10.228;2024-03-02T15:17:09;11.03;;;10.03;;
317;SDS011;146;53.448;10.228;2024-03-02T15:19:56;11.87;;;10.67;;
317;SDS011;146;53.448;10.228;2024-03-02T15:22:44;10.80;;;9.80;;
317;SDS011;146;53.448;10.228;2024-03-02T15:25:31;9.10;;;8.30;;
317;SDS011;146;53.448;10.228;2024-03-02T15:28:22;10.43;;;9.33;;
317;SDS011;146;53.448;10.228;2024-03-02T15:31:09;10.23;;;9.23;;
317;SDS011;146;53.448;10.228;2024-03-02T15:33:56;9.77;;;8.87;;
317;SDS011;146;53.448;10.228;2024-03-02T15:36:44;10.13;;;9.23;;
317;SDS011;146;53.448;10.228;2024-03-02T15:39:31;10.50;;;9.60;;
317;SDS011;146;53.448;10.228;2024-03-02T15:42:20;11.30;;;10.20;;
317;SDS011;146;53.448;10.228;2024-03-02T15:45:10;10.73;;;9.73;;
317;SDS011;146;53.448;10.228;2024-03-02T15:47:57;9.73;;;8.90;;
317;SDS011;146;53.448;10.228;2024-03-02T15:50:47;9.77;;;8.87;;
317;SDS011;146;53.448;10.228;2024-03-02T15:53:38;9.10;;;8.20;;
317;SDS011;146;53.448;10.228;2024-03-02T15:56:25;9.13;;;8.23;;
317;SDS011;146;53.448;10.228;2024-03-02T15:59:12;10.60;;;9.60;;
317;SDS011;146;53.448;10.228;2024-03-02T16:02:00;9.47;;;8.57;;
317;SDS011;146;53.448;10.228;2024-03-02T16:04:53;8.90;;;8.10;;
317;SDS011;146;53.448;10.228;2024-03-02T16:07:40;9.50;;;8.70;;
317;SDS011;146;53.448;10.228;2024-03-02T16:10:28;9.53;;;8.63;;
317;SDS011;146;53.448;10.228;2024-03-02T16:13:15;9.83;;;8.87;;
317;SDS011;146;53.448;10.228;2024-03-02T16:16:08;9.53;;;8.67;;
317;SDS011;146;53.448;10.228;2024-03-02T16:18:56;10.87;;;9.60;;
317;SDS011;146;53.448;10.228;2024-03-02T16:21:46;11.27;;;10.20;;
317;SDS011;146;53.448;10.228;2024-03-02T16:24:33;10.60;;;9.50;;
317;SDS011;146;53.448;10.228;2024-03-02T16:27:26;10.53;;;9.53;;
317;SDS011;146;53.448;10.228;2024-03-02T16:30:13;11.93;;;10.67;;
317;SDS011;146;53.448;10.228;2024-03-02T16:33:01;13.20;;;11.87;;
317;SDS011;146;53.448;10.228;2024-03-02T16:35:49;11.67;;;10.67;;
317;SDS011;146;53.448;10.228;2024-03-02T16:38:36;12.20;;;11.20;;
317;SDS011;146;53.448;10.228;2024-03-02T16:41:25;12.43;;;11.23;;
317;SDS011;146;53.448;10.228;2024-03-02T16:44:14;13.53;;;12.37;;
317;SDS011;146;53.448;10.228;2024-03-02T16:47:02;10.83;;;9.80;;
317;SDS011;146;53.448;10.228;2024-03-02T16:49:52;11.40;;;10.40;;
317;SDS011;146;53.448;10.228;2024-03-02T16:52:43;12.23;;;11.07;;
317;SDS011;146;53.448;10.228;2024-03-02T16:55:30;11.30;;;10.20;;
317;SDS011;146;53.448;10.228;2024-03-02T16:58:20;11.43;;;10.40;;
317;SDS011;146;53.448;10.228;2024-03-02T17:01:14;10.13;;;9.13;;
317;SDS011;146;53.448;10.228;2024-03-02T17:04:13;11.33;;;10.03;;
317;SDS011;146;53.448;10.228;2024-03-02T17:07:03;10.10;;;9.30;;
317;SDS011;146;53.448;10.228;2024-03-02T17:10:01;9.77;;;8.77;;
317;SDS011;146;53.448;10.228;2024-03-02T17:12:55;10.73;;;9.03;;
317;SDS011;146;53.448;10.228;2024-03-02T17:15:45;10.30;;;9.40;;
317;SDS011;146;53.448;10.228;2024-03-02T17:18:34;9.97;;;8.97;;
317;SDS011;146;53.448;10.228;2024-03-02T17:21:34;11.27;;;9.77;;
317;SDS011;146;53.448;10.228;2024-03-02T17:24:29;9.77;;;8.83;;
317;SDS011;146;53.448;10.228;2024-03-02T17:27:27;11.53;;;9.03;;
317;SDS011;146;53.448;10.228;2024-03-02T17:30:16;11.00;;;9.50;;
317;SDS011;146;53.448;10.228;2024-03-02T17:33:08;10.50;;;9.50;;
317;SDS011;146;53.448;10.228;2024-03-02T17:35:55;10.20;;;9.20;;
317;SDS011;146;53.448;10.228;2024-03-02T17:38:53;10.43;;;9.53;;
317;SDS011;146;53.448;10.228;2024-03-02T17:41:43;11.77;;;10.57;;
317;SDS011;146;53.448;10.228;2024-03-02T17:44:31;12.20;;;11.00;;
317;SDS011;146;53.448;10.228;2024-03-02T17:47:21;13.20;;;11.90;;
317;SDS011;146;53.448;10.228;2024-03-02T17:50:11;13.03;;;11.77;;
317;SDS011;146;53.448;10.228;2024-03-02T17:53:01;14.33;;;12.93;;
317;SDS011;146;53.448;10.228;2024-03-02T17:55:48;13.20;;;11.97;;
317;SDS011;146;53.448;10.228;2024-03-02T17:58:36;13.87;;;12.57;;
317;SDS011;146;53.448;10.228;2024-03-02T18:01:27;14.13;;;12.73;;
317;SDS011;146;53.448;10.228;2024-03-02T18:04:17;15.77;;;14.37;;
317;SDS011;146;53.448;10.228;2024-03-02T18:07:08;16.77;;;15.27;;
317;SDS011;146;53.448;10.228;2024-03-02T18:10:02;17.33;;;15.10;;
317;SDS011;146;53.448;10.228;2024-03-02T18:12:54;17.33;;;15.60;;
317;SDS011;146;53.448;10.228;2024-03-02T18:15:41;15.60;;;14.10;;
317;SDS011;146;53.448;10.228;2024-03-02T18:18:29;18.00;;;16.20;;
317;SDS011;146;53.448;10.228;2024-03-02T18:21:17;18.30;;;16.50;;
317;SDS011;146;53.448;10.228;2024-03-02T18:24:04;18.77;;;16.83;;
317;SDS011;146;53.448;10.228;2024-03-02T18:26:51;18.47;;;16.60;;
317;SDS011;146;53.448;10.228;2024-03-02T18:29:38;18.00;;;16.10;;
317;SDS011;146;53.448;10.228;2024-03-02T18:32:26;19.63;;;17.53;;
317;SDS011;146;53.448;10.228;2024-03-02T18:35:14;20.17;;;18.13;;
317;SDS011;146;53.448;10.228;2024-03-02T18:38:03;20.00;;;17.97;;
317;SDS011;146;53.448;10.228;2024-03-02T18:40:50;19.07;;;17.27;;
317;SDS011;146;53.448;10.228;2024-03-02T18:43:37;20.40;;;18.17;;
317;SDS011;146;53.448;10.228;2024-03-02T18:46:24;19.63;;;17.63;;
317;SDS011;146;53.448;10.228;2024-03-02T18:49:12;19.87;;;17.77;;
317;SDS011;146;53.448;10.228;2024-03-02T18:52:00;20.07;;;18.10;;